createdAt,value
2022-08-23T00:02:26.541Z,16.57
2022-08-23T00:05:08.236Z,23.37
2022-08-23T00:07:41.752Z,13.03
2022-08-23T00:10:10.957Z,16.40
2022-08-23T00:12:38.306Z,17.77
2022-08-23T00:15:06.496Z,17.37
2022-08-23T00:17:35.073Z,12.83
2022-08-23T00:20:12.275Z,25.83
2022-08-23T00:22:41.862Z,21.93
2022-08-23T00:25:11.077Z,23.10
2022-08-23T00:27:38.059Z,16.70
2022-08-23T00:30:08.789Z,22.23
2022-08-23T00:32:37.231Z,22.90
2022-08-23T00:35:06.623Z,21.30
2022-08-23T00:37:33.840Z,29.03
2022-08-23T00:40:01.037Z,19.03
2022-08-23T00:43:03.493Z,13.70
2022-08-23T00:46:06.521Z,15.00
2022-08-23T00:48:34.414Z,13.70
2022-08-23T00:51:11.018Z,15.30
2022-08-23T00:53:42.113Z,17.53
2022-08-23T00:56:12.407Z,17.53
2022-08-23T00:58:39.353Z,15.17
2022-08-23T01:01:06.651Z,19.63
2022-08-23T01:03:38.396Z,19.87
2022-08-23T01:06:18.218Z,16.60
2022-08-23T01:08:50.539Z,16.77
2022-08-23T01:11:25.830Z,19.13
2022-08-23T01:14:24.411Z,27.27
2022-08-23T01:16:57.456Z,23.73
2022-08-23T01:19:32.905Z,14.73
2022-08-23T01:22:10.904Z,17.57
2022-08-23T01:25:06.052Z,21.27
2022-08-23T01:27:25.650Z,18.80
2022-08-23T01:29:52.359Z,17.57
2022-08-23T01:32:19.833Z,12.27
2022-08-23T01:34:51.973Z,18.83
2022-08-23T01:37:19.654Z,23.00
2022-08-23T01:39:46.360Z,17.33
2022-08-23T01:42:13.120Z,15.00
2022-08-23T01:44:39.838Z,18.23
2022-08-23T01:47:07.789Z,20.70
2022-08-23T01:49:35.245Z,19.00
2022-08-23T01:52:02.084Z,18.23
2022-08-23T01:54:29.394Z,16.73
2022-08-23T01:56:56.635Z,18.33
2022-08-23T01:59:24.257Z,17.63
2022-08-23T02:01:51.420Z,18.47
2022-08-23T02:04:18.259Z,14.27
2022-08-23T02:06:45.302Z,19.13
2022-08-23T02:09:17.504Z,17.03
2022-08-23T02:11:44.951Z,16.90
2022-08-23T02:14:16.025Z,15.33
2022-08-23T02:17:03.966Z,14.87
2022-08-23T02:19:35.357Z,16.53
2022-08-23T02:22:03.556Z,17.20
2022-08-23T02:24:31.608Z,16.03
2022-08-23T02:27:02.259Z,19.67
2022-08-23T02:29:32.436Z,15.90
2022-08-23T02:32:00.378Z,18.90
2022-08-23T02:34:27.902Z,14.57
2022-08-23T02:36:54.978Z,16.93
2022-08-23T02:39:22.083Z,14.77
2022-08-23T02:41:49.891Z,12.80
2022-08-23T02:44:16.843Z,15.87
2022-08-23T02:46:43.630Z,20.47
2022-08-23T02:49:10.287Z,14.20
2022-08-23T02:51:37.469Z,15.43
2022-08-23T02:54:05.732Z,14.00
2022-08-23T02:56:33.802Z,12.57
2022-08-23T02:59:00.501Z,13.73
2022-08-23T03:01:30.068Z,14.63
2022-08-23T03:03:57.756Z,14.83
2022-08-23T03:06:26.453Z,12.47
2022-08-23T03:08:54.458Z,12.23
2022-08-23T03:11:22.552Z,14.00
2022-08-23T03:13:50.733Z,15.20
2022-08-23T03:16:18.306Z,14.20
2022-08-23T03:18:45.418Z,16.13
2022-08-23T03:21:12.203Z,13.70
2022-08-23T03:23:40.384Z,14.03
2022-08-23T03:26:09.119Z,14.70
2022-08-23T03:28:37.661Z,14.03
2022-08-23T03:31:05.510Z,13.20
2022-08-23T03:33:32.231Z,11.60
2022-08-23T03:36:01.373Z,14.07
2022-08-23T03:38:28.169Z,12.70
2022-08-23T03:40:54.991Z,15.40
2022-08-23T03:43:22.194Z,14.90
2022-08-23T03:45:48.869Z,15.20
2022-08-23T03:48:16.230Z,13.80
2022-08-23T03:50:44.216Z,15.33
2022-08-23T03:53:12.228Z,14.73
2022-08-23T03:55:42.686Z,14.57
2022-08-23T03:58:10.783Z,13.43
2022-08-23T04:00:39.118Z,15.97
2022-08-23T04:03:05.805Z,17.43
2022-08-23T04:05:32.472Z,16.20
2022-08-23T04:07:59.650Z,13.87
2022-08-23T04:10:26.578Z,15.37
2022-08-23T04:12:54.961Z,15.97
2022-08-23T04:15:22.892Z,20.37
2022-08-23T04:17:49.584Z,13.10
2022-08-23T04:20:16.592Z,16.80
2022-08-23T04:22:44.590Z,16.07
2022-08-23T04:25:33.995Z,15.00
2022-08-23T04:28:00.805Z,12.80
2022-08-23T04:30:28.000Z,17.20
2022-08-23T04:32:54.668Z,14.50
2022-08-23T04:35:22.707Z,18.20
2022-08-23T04:37:49.431Z,15.20
2022-08-23T04:40:35.004Z,17.27
2022-08-23T04:43:02.535Z,12.40
2022-08-23T04:45:29.719Z,17.37
2022-08-23T04:47:56.851Z,16.67
2022-08-23T04:50:23.931Z,17.87
2022-08-23T04:52:51.025Z,15.03
2022-08-23T04:55:17.770Z,17.93
2022-08-23T04:57:44.829Z,15.37
2022-08-23T05:00:14.163Z,16.83
2022-08-23T05:02:41.123Z,21.67
2022-08-23T05:05:10.981Z,18.73
2022-08-23T05:07:42.495Z,16.80
2022-08-23T05:10:15.260Z,13.43
2022-08-23T05:12:42.296Z,20.40
2022-08-23T05:15:09.821Z,16.17
2022-08-23T05:17:37.068Z,16.73
2022-08-23T05:20:07.057Z,16.13
2022-08-23T05:22:35.415Z,14.43
2022-08-23T05:25:02.137Z,20.10
2022-08-23T05:27:28.831Z,23.50
2022-08-23T05:29:55.710Z,17.93
2022-08-23T05:32:23.001Z,19.93
2022-08-23T05:34:50.012Z,19.90
2022-08-23T05:37:17.942Z,22.20
2022-08-23T05:39:44.646Z,23.37
2022-08-23T05:42:14.890Z,24.17
2022-08-23T05:44:42.161Z,23.63
2022-08-23T05:47:12.758Z,16.17
2022-08-23T05:49:42.553Z,17.00
2022-08-23T05:52:12.134Z,18.17
2022-08-23T05:54:38.765Z,32.17
2022-08-23T05:57:05.533Z,35.57
2022-08-23T05:59:32.202Z,32.03
2022-08-23T06:01:58.840Z,23.07
2022-08-23T06:04:25.489Z,24.93
2022-08-23T06:06:52.179Z,24.93
2022-08-23T06:09:19.445Z,25.20
2022-08-23T06:11:48.019Z,27.33
2022-08-23T06:14:15.119Z,27.77
2022-08-23T06:16:45.826Z,27.50
2022-08-23T06:19:14.262Z,28.13
2022-08-23T06:21:42.031Z,25.43
2022-08-23T06:24:09.349Z,21.10
2022-08-23T06:26:39.832Z,23.40
2022-08-23T06:29:14.661Z,22.00
2022-08-23T06:31:50.101Z,23.33
2022-08-23T06:34:26.422Z,22.23
2022-08-23T06:36:56.498Z,21.53
2022-08-23T06:39:25.316Z,20.10
2022-08-23T06:41:52.654Z,19.37
2022-08-23T06:44:20.182Z,19.60
2022-08-23T06:46:48.870Z,22.50
2022-08-23T06:49:16.538Z,26.03
2022-08-23T06:51:50.401Z,20.90
2022-08-23T06:54:22.033Z,17.63
2022-08-23T06:56:49.680Z,18.80
2022-08-23T06:59:17.492Z,18.63
2022-08-23T07:01:52.250Z,17.37
2022-08-23T07:04:22.911Z,15.33
2022-08-23T07:06:49.547Z,17.10
2022-08-23T07:09:16.699Z,22.80
2022-08-23T07:11:43.404Z,18.57
2022-08-23T07:14:13.151Z,15.87
2022-08-23T07:17:01.371Z,16.70
2022-08-23T07:19:31.585Z,22.27
2022-08-23T07:21:59.033Z,19.10
2022-08-23T07:24:32.120Z,19.47
2022-08-23T07:27:01.818Z,18.80
2022-08-23T07:29:30.125Z,16.43
2022-08-23T07:31:57.151Z,18.13
2022-08-23T07:34:25.054Z,17.80
2022-08-23T07:36:53.528Z,20.77
2022-08-23T07:39:22.312Z,15.73
2022-08-23T07:41:49.593Z,18.50
2022-08-23T07:44:18.201Z,15.20
2022-08-23T07:46:46.658Z,14.80
2022-08-23T07:49:14.428Z,17.83
2022-08-23T07:51:45.564Z,13.40
2022-08-23T07:54:13.047Z,13.70
2022-08-23T07:56:40.665Z,20.50
2022-08-23T07:59:08.813Z,21.43
2022-08-23T08:01:36.218Z,17.63
2022-08-23T08:04:05.256Z,21.70
2022-08-23T08:06:41.218Z,16.77
2022-08-23T08:09:09.446Z,18.53
2022-08-23T08:11:36.330Z,17.93
2022-08-23T08:14:08.928Z,19.50
2022-08-23T08:16:39.351Z,20.20
2022-08-23T08:19:08.916Z,16.53
2022-08-23T08:21:39.647Z,19.77
2022-08-23T08:24:11.412Z,25.57
2022-08-23T08:26:38.532Z,17.83
2022-08-23T08:29:06.230Z,15.47
2022-08-23T08:31:34.512Z,17.87
2022-08-23T08:34:01.260Z,17.90
2022-08-23T08:36:41.537Z,20.80
2022-08-23T08:39:11.695Z,18.57
2022-08-23T08:41:44.198Z,18.17
2022-08-23T08:44:22.212Z,20.60
2022-08-23T08:46:53.273Z,19.23
2022-08-23T08:49:44.518Z,15.67
2022-08-23T08:52:16.210Z,14.67
2022-08-23T08:54:48.139Z,14.73
2022-08-23T08:57:18.540Z,18.77
2022-08-23T08:59:59.714Z,17.90
2022-08-23T09:02:32.781Z,14.53
2022-08-23T09:05:09.602Z,16.50
2022-08-23T09:07:47.369Z,16.80
2022-08-23T09:10:32.329Z,16.13
2022-08-23T09:13:19.864Z,17.47
2022-08-23T09:15:52.902Z,15.27
2022-08-23T09:18:19.655Z,16.83
2022-08-23T09:20:51.177Z,12.93
2022-08-23T09:23:31.840Z,14.27
2022-08-23T09:26:03.702Z,16.80
2022-08-23T09:28:34.438Z,19.40
2022-08-23T09:31:01.566Z,16.07
2022-08-23T09:33:41.854Z,14.30
2022-08-23T09:36:14.806Z,14.50
2022-08-23T09:38:56.763Z,13.67
2022-08-23T09:41:32.882Z,13.17
2022-08-23T09:44:02.508Z,15.37
2022-08-23T09:46:36.031Z,12.83
2022-08-23T09:49:23.745Z,13.17
2022-08-23T09:51:54.204Z,16.57
2022-08-23T09:54:27.691Z,11.73
2022-08-23T09:56:57.670Z,15.93
2022-08-23T09:59:27.425Z,16.40
2022-08-23T10:01:57.189Z,17.57
2022-08-23T10:04:40.095Z,13.83
2022-08-23T10:07:40.334Z,14.43
2022-08-23T10:10:27.994Z,10.93
2022-08-23T10:12:56.598Z,11.73
2022-08-23T10:15:36.350Z,15.40
2022-08-23T10:18:26.753Z,20.40
2022-08-23T10:21:20.909Z,14.97
2022-08-23T10:24:08.751Z,11.67
2022-08-23T10:26:43.848Z,9.60
2022-08-23T10:29:39.126Z,19.53
2022-08-23T10:32:17.836Z,11.57
2022-08-23T10:35:09.315Z,10.30
2022-08-23T10:37:45.498Z,11.50
2022-08-23T10:40:40.218Z,13.43
2022-08-23T10:43:25.854Z,9.67
2022-08-23T10:45:56.113Z,7.83
2022-08-23T10:48:29.442Z,12.83
2022-08-23T10:51:11.534Z,12.63
2022-08-23T10:53:49.044Z,8.23
2022-08-23T10:56:20.984Z,15.77
2022-08-23T10:58:53.181Z,6.93
2022-08-23T11:01:26.573Z,8.00
2022-08-23T11:04:06.676Z,11.83
2022-08-23T11:06:36.185Z,10.43
2022-08-23T11:09:07.900Z,11.57
2022-08-23T11:11:45.265Z,12.17
2022-08-23T11:14:32.122Z,9.40
2022-08-23T11:17:02.266Z,11.60
2022-08-23T11:19:47.988Z,13.17
2022-08-23T11:22:20.918Z,10.07
2022-08-23T11:25:19.190Z,12.13
2022-08-23T11:27:46.571Z,7.63
2022-08-23T11:30:32.144Z,10.93
2022-08-23T11:33:24.392Z,8.83
2022-08-23T11:36:16.652Z,11.70
2022-08-23T11:39:06.828Z,13.77
2022-08-23T11:41:56.012Z,8.63
2022-08-23T11:44:48.180Z,11.17
2022-08-23T11:47:15.486Z,11.53
2022-08-23T11:50:00.487Z,7.83
2022-08-23T11:52:34.183Z,11.43
2022-08-23T11:55:22.154Z,12.60
2022-08-23T11:58:01.401Z,10.47
2022-08-23T12:00:53.240Z,11.33
2022-08-23T12:03:25.540Z,9.87
2022-08-23T12:05:52.201Z,12.67
2022-08-23T12:08:29.382Z,9.37
2022-08-23T12:11:03.086Z,17.33
2022-08-23T12:13:44.263Z,14.07
2022-08-23T12:16:16.947Z,11.47
2022-08-23T12:18:47.555Z,10.60
2022-08-23T12:21:29.468Z,8.50
2022-08-23T12:24:03.573Z,12.50
2022-08-23T12:27:08.704Z,8.93
2022-08-23T12:29:47.182Z,11.07
2022-08-23T12:32:28.731Z,12.43
2022-08-23T12:35:03.255Z,12.93
2022-08-23T12:37:41.879Z,11.80
2022-08-23T12:40:13.922Z,11.37
2022-08-23T12:42:41.941Z,10.07
2022-08-23T12:45:21.542Z,12.37
2022-08-23T12:48:01.408Z,13.90
2022-08-23T12:50:38.673Z,14.30
2022-08-23T12:53:10.656Z,11.90
2022-08-23T12:55:42.478Z,13.00
2022-08-23T12:58:12.330Z,8.87
2022-08-23T13:00:43.413Z,7.87
2022-08-23T13:03:18.025Z,5.57
2022-08-23T13:05:55.342Z,4.93
2022-08-23T13:08:37.442Z,5.67
2022-08-23T13:11:08.344Z,9.83
2022-08-23T13:13:38.685Z,9.33
2022-08-23T13:16:42.561Z,9.70
2022-08-23T13:19:35.311Z,6.37
2022-08-23T13:22:20.193Z,8.20
2022-08-23T13:27:59.845Z,10.20
2022-08-23T13:30:36.257Z,13.77
2022-08-23T13:33:07.909Z,10.30
2022-08-23T13:35:46.940Z,13.27
2022-08-23T13:38:21.430Z,15.50
2022-08-23T13:41:03.831Z,23.13
2022-08-23T13:43:45.375Z,19.13
2022-08-23T13:46:28.347Z,10.83
2022-08-23T13:49:00.780Z,11.57
2022-08-23T13:51:33.639Z,12.57
2022-08-23T13:54:06.829Z,16.37
2022-08-23T13:56:55.210Z,13.40
2022-08-23T13:59:31.552Z,20.27
2022-08-23T14:02:05.153Z,10.17
2022-08-23T14:04:32.496Z,16.60
2022-08-23T14:06:59.167Z,12.43
2022-08-23T14:09:26.682Z,13.87
2022-08-23T14:11:57.915Z,11.30
2022-08-23T14:14:25.422Z,16.67
2022-08-23T14:16:54.439Z,20.13
2022-08-23T14:22:07.974Z,14.23
2022-08-23T14:24:34.941Z,10.60
2022-08-23T14:27:01.901Z,20.97
2022-08-23T14:29:28.631Z,11.93
2022-08-23T14:31:57.411Z,10.57
2022-08-23T14:34:24.216Z,9.57
2022-08-23T14:39:39.208Z,9.50
2022-08-23T14:42:06.657Z,9.77
2022-08-23T14:44:36.190Z,10.90
2022-08-23T14:47:04.848Z,14.07
2022-08-23T14:49:31.783Z,12.30
2022-08-23T14:51:58.483Z,10.77
2022-08-23T14:54:26.776Z,11.43
2022-08-23T14:56:53.822Z,9.50
2022-08-23T14:59:20.780Z,8.50
2022-08-23T15:01:49.418Z,12.70
2022-08-23T15:04:19.104Z,11.93
2022-08-23T15:07:06.899Z,9.47
2022-08-23T15:09:33.372Z,11.90
2022-08-23T15:14:46.820Z,13.33
2022-08-23T15:17:14.489Z,9.07
2022-08-23T15:19:41.278Z,8.60
2022-08-23T15:22:21.287Z,8.47
2022-08-23T15:24:49.296Z,11.63
2022-08-23T15:27:17.946Z,7.87
2022-08-23T15:29:44.731Z,10.83
2022-08-23T15:32:12.764Z,11.77
2022-08-23T15:34:46.161Z,11.37
2022-08-23T15:37:13.830Z,11.50
2022-08-23T15:39:41.888Z,15.13
2022-08-23T15:42:08.733Z,14.13
2022-08-23T15:44:35.402Z,13.73
2022-08-23T15:47:04.960Z,11.47
2022-08-23T15:49:36.551Z,10.87
2022-08-23T15:52:04.269Z,12.50
2022-08-23T15:54:31.010Z,9.87
2022-08-23T15:56:57.937Z,10.27
2022-08-23T15:59:25.142Z,9.07
2022-08-23T16:01:52.107Z,9.97
2022-08-23T16:04:18.888Z,10.33
2022-08-23T16:06:45.923Z,10.97
2022-08-23T16:09:22.980Z,15.10
2022-08-23T16:11:50.599Z,13.20
2022-08-23T16:14:17.561Z,11.93
2022-08-23T16:16:46.762Z,12.17
2022-08-23T16:19:14.452Z,11.70
2022-08-23T16:21:44.170Z,12.90
2022-08-23T16:24:11.388Z,9.73
2022-08-23T16:26:41.959Z,10.67
2022-08-23T16:29:13.325Z,15.37
2022-08-23T16:31:41.756Z,11.67
2022-08-23T16:34:13.115Z,10.43
2022-08-23T16:36:42.482Z,13.67
2022-08-23T16:39:11.759Z,16.10
2022-08-23T16:41:38.574Z,12.93
2022-08-23T16:44:05.530Z,10.60
2022-08-23T16:46:32.603Z,12.77
2022-08-23T16:48:59.335Z,10.70
2022-08-23T16:51:26.596Z,11.23
2022-08-23T16:54:02.785Z,10.10
2022-08-23T16:56:32.018Z,13.37
2022-08-23T16:58:59.255Z,12.33
2022-08-23T17:01:27.215Z,8.93
2022-08-23T17:03:55.442Z,11.27
2022-08-23T17:06:22.625Z,8.53
2022-08-23T17:08:49.511Z,9.40
2022-08-23T17:11:19.425Z,10.77
2022-08-23T17:13:46.563Z,25.63
2022-08-23T17:16:13.320Z,11.40
2022-08-23T17:18:40.751Z,10.33
2022-08-23T17:21:07.757Z,8.97
2022-08-23T17:23:39.328Z,10.23
2022-08-23T17:26:08.726Z,13.23
2022-08-23T17:28:35.694Z,9.80
2022-08-23T17:31:02.720Z,17.33
2022-08-23T17:33:29.463Z,16.83
2022-08-23T17:35:56.140Z,18.07
2022-08-23T17:38:22.897Z,10.73
2022-08-23T17:40:50.066Z,13.57
2022-08-23T17:43:16.751Z,10.57
2022-08-23T17:45:46.622Z,9.63
2022-08-23T17:48:15.743Z,9.83
2022-08-23T17:50:43.742Z,13.17
2022-08-23T17:53:11.355Z,10.27
2022-08-23T17:55:38.051Z,10.07
2022-08-23T17:58:05.503Z,8.40
2022-08-23T18:00:34.937Z,12.73
2022-08-23T18:03:01.931Z,12.83
2022-08-23T18:05:30.344Z,7.53
2022-08-23T18:07:57.041Z,7.87
2022-08-23T18:10:25.460Z,8.00
2022-08-23T18:12:52.331Z,9.27
2022-08-23T18:15:19.170Z,10.30
2022-08-23T18:17:46.371Z,7.13
2022-08-23T18:20:13.466Z,14.33
2022-08-23T18:22:40.296Z,10.93
2022-08-23T18:25:09.437Z,13.10
2022-08-23T18:27:55.259Z,10.60
2022-08-23T18:30:22.082Z,11.00
2022-08-23T18:32:48.795Z,12.27
2022-08-23T18:35:15.653Z,8.77
2022-08-23T18:37:43.304Z,9.77
2022-08-23T18:40:10.775Z,10.13
2022-08-23T18:42:38.367Z,10.20
2022-08-23T18:45:06.903Z,13.17
2022-08-23T18:47:35.005Z,14.33
2022-08-23T18:50:01.779Z,12.97
2022-08-23T18:52:31.142Z,14.57
2022-08-23T18:54:58.265Z,13.00
2022-08-23T18:57:25.436Z,11.77
2022-08-23T18:59:52.648Z,7.17
2022-08-23T19:02:19.634Z,8.97
2022-08-23T19:04:46.519Z,10.83
2022-08-23T19:07:13.186Z,11.30
2022-08-23T19:09:39.804Z,12.73
2022-08-23T19:12:06.804Z,8.73
2022-08-23T19:14:35.573Z,10.20
2022-08-23T19:17:08.152Z,10.00
2022-08-23T19:19:35.131Z,9.93
2022-08-23T19:22:01.834Z,5.67
2022-08-23T19:24:28.779Z,7.80
2022-08-23T19:26:55.779Z,8.50
2022-08-23T19:29:22.531Z,9.50
2022-08-23T19:31:50.296Z,5.47
2022-08-23T19:34:19.700Z,8.73
2022-08-23T19:36:51.278Z,11.30
2022-08-23T19:39:27.379Z,7.60
2022-08-23T19:41:54.066Z,8.03
2022-08-23T19:44:21.422Z,11.97
2022-08-23T19:46:48.383Z,5.13
2022-08-23T19:49:15.398Z,5.87
2022-08-23T19:51:43.259Z,3.33
2022-08-23T19:54:12.597Z,4.50
2022-08-23T19:56:42.504Z,4.90
2022-08-23T19:59:12.588Z,6.40
2022-08-23T20:01:40.433Z,5.97
2022-08-23T20:04:07.667Z,14.10
2022-08-23T20:06:35.701Z,11.27
2022-08-23T20:09:04.820Z,7.90
2022-08-23T20:11:32.432Z,11.20
2022-08-23T20:14:00.197Z,4.43
2022-08-23T20:16:28.088Z,11.53
2022-08-23T20:18:55.365Z,8.77
2022-08-23T20:21:23.926Z,6.77
2022-08-23T20:24:04.387Z,8.83
2022-08-23T20:26:40.659Z,8.27
2022-08-23T20:29:22.636Z,10.67
2022-08-23T20:31:53.621Z,14.57
2022-08-23T20:34:21.983Z,10.13
2022-08-23T20:36:52.660Z,8.73
2022-08-23T20:39:23.749Z,11.30
2022-08-23T20:41:52.171Z,13.37
2022-08-23T20:44:19.964Z,9.07
2022-08-23T20:46:50.722Z,11.47
2022-08-23T20:49:21.118Z,11.03
2022-08-23T20:51:48.064Z,12.87
2022-08-23T20:54:16.826Z,10.67
2022-08-23T20:56:43.845Z,9.77
2022-08-23T20:59:10.611Z,11.07
2022-08-23T21:01:37.346Z,12.07
2022-08-23T21:04:05.487Z,8.47
2022-08-23T21:06:39.191Z,7.43
2022-08-23T21:09:16.359Z,8.60
2022-08-23T21:11:43.702Z,13.03
2022-08-23T21:14:10.331Z,10.77
2022-08-23T21:16:37.176Z,6.93
2022-08-23T21:19:04.036Z,10.60
2022-08-23T21:21:31.167Z,16.40
2022-08-23T21:23:58.028Z,10.27
2022-08-23T21:26:25.308Z,10.50
2022-08-23T21:28:52.199Z,10.37
2022-08-23T21:31:23.321Z,9.63
2022-08-23T21:33:50.325Z,12.50
2022-08-23T21:36:19.189Z,9.60
2022-08-23T21:38:46.373Z,11.83
2022-08-23T21:41:47.137Z,12.80
2022-08-23T21:44:22.872Z,13.67
2022-08-23T21:46:49.535Z,8.10
2022-08-23T21:49:17.101Z,9.70
2022-08-23T21:51:45.309Z,10.77
2022-08-23T21:54:13.294Z,12.13
2022-08-23T21:56:40.715Z,11.40
2022-08-23T21:59:11.207Z,16.03
2022-08-23T22:01:39.316Z,10.80
2022-08-23T22:04:08.874Z,9.33
2022-08-23T22:06:38.256Z,18.37
2022-08-23T22:09:10.953Z,8.10
2022-08-23T22:11:40.670Z,10.57
2022-08-23T22:14:12.620Z,10.37
2022-08-23T22:16:41.066Z,8.23
2022-08-23T22:19:07.721Z,9.23
2022-08-23T22:21:35.397Z,11.57
2022-08-23T22:24:02.818Z,9.20
2022-08-23T22:26:29.721Z,8.70
2022-08-23T22:28:57.224Z,9.73
2022-08-23T22:31:24.861Z,10.30
2022-08-23T22:33:52.829Z,10.00
2022-08-23T22:36:22.987Z,11.50
2022-08-23T22:38:51.740Z,16.07
2022-08-23T22:41:21.929Z,8.23
2022-08-23T22:43:48.574Z,9.87
2022-08-23T22:46:15.343Z,9.30
2022-08-23T22:48:42.542Z,10.43
2022-08-23T22:51:21.859Z,9.50
2022-08-23T22:53:51.742Z,13.47
2022-08-23T22:56:26.856Z,10.43
2022-08-23T22:58:54.379Z,9.03
2022-08-23T23:01:30.963Z,8.87
2022-08-23T23:03:59.536Z,13.23
2022-08-23T23:06:27.919Z,13.40
2022-08-23T23:08:56.270Z,10.80
2022-08-23T23:11:23.789Z,11.87
2022-08-23T23:13:50.982Z,12.77
2022-08-23T23:16:22.183Z,11.87
2022-08-23T23:19:27.784Z,11.90
2022-08-23T23:21:56.731Z,10.50
2022-08-23T23:24:27.039Z,12.00
2022-08-23T23:26:53.842Z,10.23
2022-08-23T23:29:20.985Z,11.47
2022-08-23T23:31:48.737Z,14.43
2022-08-23T23:34:16.122Z,10.03
2022-08-23T23:36:42.923Z,14.53
2022-08-23T23:39:11.245Z,9.20
2022-08-23T23:41:38.628Z,9.13
2022-08-23T23:44:05.839Z,15.60
2022-08-23T23:46:32.839Z,21.60
2022-08-23T23:48:59.455Z,19.87
2022-08-23T23:51:28.965Z,11.03
2022-08-23T23:53:57.741Z,11.73
2022-08-23T23:56:27.460Z,14.73
2022-08-23T23:58:55.148Z,14.70
